Baldwin, Illinois
Current Conditions -  °F | °C
As of 4:15 PM on Sunday 25 Jan 2015 (Local Time) from KSAR Reporting Station
Moderate Rain Moderate Rain  
Wind Chill: 37°   Ceiling: 400
Heat Index: 43°   Visibility: 5mi
Dew Point: 42°   Wind: 12mph
Humidity: 97%   Direction: 330°NNW
Pressure: 29.67"   Gusts: NA
Location:  38.18°N, 89.84°W
Report Text: KSAR 252215Z AUTO 33010KT 5SM RA OVC004 06/06 A2967 RMK AO2 T00610056
Loading
Personal Weather Stations






























Interactive Weather Map New forecast layout! Learn more

10-Day Weather Forecast

Advertisements
Track Severe Weather on mobile